Time;durP1;ratioP1;P1;durP2;ratioP2;P2;SDS_P1;SDS_P2;PMS_P1;PMS_P2;Temp;Humidity;BMP_temperature;BMP_pressure;BME280_temperature;BME280_humidity;BME280_pressure;Samples;Min_cycle;Max_cycle;Signal;HPM_P1;HPM_P2
2023/05/01 00:01:16;;;;;;;5.87;5.37;;;;;;;14.53;nan;99351.03;4997009;28;20266;-86
2023/05/01 00:03:41;;;;;;;6.00;4.60;;;;;;;14.48;nan;99361.13;4996534;28;20219;-86
2023/05/01 00:06:07;;;;;;;6.13;5.35;;;;;;;14.49;nan;99357.50;4995986;28;20450;-86
2023/05/01 00:08:33;;;;;;;4.40;4.00;;;;;;;14.43;nan;99353.56;4996042;28;20306;-86
2023/05/01 00:11:08;;;;;;;5.30;4.80;;;;;;;14.41;nan;99357.31;4996231;28;20319;-86
2023/05/01 00:13:34;;;;;;;6.03;4.32;;;;;;;14.41;nan;99352.84;4996281;28;20222;-86
2023/05/01 00:15:59;;;;;;;5.07;4.57;;;;;;;14.43;nan;99347.47;4995795;28;20233;-86
2023/05/01 00:18:25;;;;;;;5.47;4.00;;;;;;;14.45;nan;99351.66;4996086;28;20214;-86
2023/05/01 00:20:50;;;;;;;4.60;4.20;;;;;;;14.46;nan;99355.13;4995349;28;20278;-86
2023/05/01 00:23:15;;;;;;;4.90;4.37;;;;;;;14.47;nan;99344.41;4996522;28;20592;-86
2023/05/01 00:25:41;;;;;;;5.00;4.60;;;;;;;14.51;nan;99347.66;4995037;28;20231;-86
2023/05/01 00:28:07;;;;;;;6.37;5.07;;;;;;;14.51;nan;99340.56;4996273;28;20245;-86
2023/05/01 00:30:33;;;;;;;5.00;4.57;;;;;;;14.50;nan;99344.19;4975605;28;21655;-86
2023/05/01 00:32:59;;;;;;;4.55;4.10;;;;;;;14.53;nan;99335.19;4996264;28;20473;-86
2023/05/01 00:35:25;;;;;;;6.75;5.50;;;;;;;14.57;nan;99332.13;4994762;28;20800;-86
2023/05/01 00:37:50;;;;;;;5.10;4.70;;;;;;;14.58;nan;99331.19;4978612;28;20215;-86
2023/05/01 00:40:16;;;;;;;5.60;5.10;;;;;;;14.60;nan;99325.75;4995970;28;20222;-86
2023/05/01 00:42:41;;;;;;;5.30;4.77;;;;;;;14.63;nan;99325.50;4995472;28;20225;-86
2023/05/01 00:45:07;;;;;;;4.70;4.00;;;;;;;14.64;nan;99321.91;4979270;28;20222;-86
2023/05/01 00:47:37;;;;;;;4.38;3.97;;;;;;;14.66;nan;99322.56;4978599;28;20223;-86
2023/05/01 00:50:04;;;;;;;5.82;5.25;;;;;;;14.69;nan;99317.06;4980893;28;20534;-86
2023/05/01 00:52:29;;;;;;;4.47;4.10;;;;;;;14.71;nan;99316.91;4999570;28;20714;-86
2023/05/01 00:54:55;;;;;;;5.30;4.90;;;;;;;14.72;nan;99316.78;4982362;28;20222;-86
2023/05/01 00:57:21;;;;;;;5.65;5.15;;;;;;;14.74;nan;99314.88;4999733;28;20626;-86
2023/05/01 00:59:47;;;;;;;4.90;4.50;;;;;;;14.76;nan;99312.91;4982056;28;20215;-86
2023/05/01 01:02:13;;;;;;;5.13;4.68;;;;;;;14.76;nan;99307.63;5000415;28;20227;-86
2023/05/01 01:04:44;;;;;;;7.30;5.10;;;;;;;14.75;nan;99311.25;4998280;28;20480;-86
2023/05/01 01:07:49;;;;;;;7.32;5.03;;;;;;;14.74;nan;99300.78;4998973;28;20325;-86
2023/05/01 01:10:47;;;;;;;4.53;4.07;;;;;;;14.73;nan;99296.47;4998975;28;20225;-87
2023/05/01 01:13:32;;;;;;;5.55;5.05;;;;;;;14.72;nan;99293.00;4998148;28;20250;-87
2023/05/01 01:16:22;;;;;;;5.30;4.68;;;;;;;14.70;nan;99287.00;4999305;28;20256;-86
2023/05/01 01:18:59;;;;;;;5.32;4.82;;;;;;;14.68;nan;99288.94;4999230;28;20674;-86
2023/05/01 01:21:33;;;;;;;4.82;4.32;;;;;;;14.66;nan;99287.38;4998883;28;20248;-86
2023/05/01 01:24:17;;;;;;;5.70;5.20;;;;;;;14.63;nan;99280.56;5013692;23;20251;-82
2023/05/01 01:26:55;;;;;;;6.38;4.50;;;;;;;14.60;nan;99276.38;4929444;28;21137;-81
2023/05/01 01:29:30;;;;;;;5.20;4.70;;;;;;;14.57;nan;99271.34;4939962;28;20251;-82
2023/05/01 01:32:33;;;;;;;5.20;4.70;;;;;;;14.56;nan;99274.13;4955935;28;20260;-82
2023/05/01 01:35:15;;;;;;;6.38;5.22;;;;;;;14.56;nan;99279.41;4955382;28;20445;-82
2023/05/01 01:37:47;;;;;;;4.40;4.00;;;;;;;14.50;nan;99277.25;4953439;28;20514;-83
2023/05/01 01:40:16;;;;;;;4.75;4.30;;;;;;;14.47;nan;99272.22;4939055;28;20216;-82
2023/05/01 01:42:51;;;;;;;4.63;4.20;;;;;;;14.45;nan;99271.53;4958457;28;20488;-81
2023/05/01 01:45:28;;;;;;;4.82;4.35;;;;;;;14.44;nan;99275.13;4935963;28;20224;-82
2023/05/01 01:47:56;;;;;;;5.47;4.97;;;;;;;14.41;nan;99278.88;4940101;28;20466;-82
2023/05/01 01:50:24;;;;;;;5.10;4.68;;;;;;;14.43;nan;99278.75;4937083;28;20292;-81
2023/05/01 01:52:52;;;;;;;6.63;5.70;;;;;;;14.41;nan;99265.66;4954548;28;20263;-81
2023/05/01 01:55:24;;;;;;;5.47;4.90;;;;;;;14.41;nan;99264.81;4937659;28;20251;-81
2023/05/01 01:57:50;;;;;;;9.07;6.28;;;;;;;14.42;nan;99266.50;4955606;28;20502;-81
2023/05/01 02:00:19;;;;;;;4.80;4.13;;;;;;;14.39;nan;99271.09;4936229;28;20545;-82
2023/05/01 02:02:48;;;;;;;6.40;3.67;;;;;;;14.37;nan;99265.09;4937019;28;21334;-83
2023/05/01 02:05:16;;;;;;;5.90;4.85;;;;;;;14.39;nan;99273.75;4936675;28;20818;-81
2023/05/01 02:07:45;;;;;;;6.82;5.25;;;;;;;14.41;nan;99263.00;4954638;28;20244;-82
2023/05/01 02:10:12;;;;;;;5.30;4.57;;;;;;;14.41;nan;99259.53;4940241;28;20227;-81
2023/05/01 02:12:40;;;;;;;5.15;4.75;;;;;;;14.37;nan;99265.09;4937495;28;20224;-81
2023/05/01 02:15:08;;;;;;;5.30;4.80;;;;;;;14.30;nan;99261.28;4938416;28;20258;-83
2023/05/01 02:17:36;;;;;;;5.20;4.80;;;;;;;14.26;nan;99264.34;4941594;28;20216;-83
2023/05/01 02:20:05;;;;;;;6.45;4.95;;;;;;;14.22;nan;99262.91;4956710;28;20228;-82
2023/05/01 02:22:31;;;;;;;7.63;5.32;;;;;;;14.18;nan;99270.25;4940850;28;20315;-81
2023/05/01 02:24:59;;;;;;;5.95;5.35;;;;;;;14.14;nan;99268.84;4974682;28;20746;-81
2023/05/01 02:28:02;;;;;;;5.30;4.80;;;;;;;14.11;nan;99269.91;4976085;28;21304;-82
2023/05/01 02:30:27;;;;;;;5.00;4.53;;;;;;;14.10;nan;99275.34;4904126;29;20777;-82
2023/05/01 02:32:53;;;;;;;5.23;4.70;;;;;;;14.11;nan;99275.19;4959396;28;20329;-83
2023/05/01 02:35:19;;;;;;;5.53;5.03;;;;;;;14.14;nan;99267.03;4975716;28;20644;-83
2023/05/01 02:37:44;;;;;;;5.70;5.20;;;;;;;14.16;nan;99267.72;4979075;28;20287;-81
2023/05/01 02:40:14;;;;;;;4.90;4.50;;;;;;;14.19;nan;99269.28;4977079;28;20805;-81
2023/05/01 02:42:44;;;;;;;6.03;4.45;;;;;;;14.21;nan;99263.88;4992214;28;20474;-81
2023/05/01 02:45:17;;;;;;;7.40;5.45;;;;;;;14.22;nan;99258.44;4980054;28;20326;-83
2023/05/01 02:47:47;;;;;;;4.35;3.95;;;;;;;14.25;nan;99267.94;4977823;28;20233;-81
2023/05/01 02:50:14;;;;;;;7.07;5.05;;;;;;;14.24;nan;99268.91;4972353;28;20223;-81
2023/05/01 02:52:41;;;;;;;9.93;5.22;;;;;;;14.22;nan;99266.38;4970643;28;20320;-83
2023/05/01 02:55:26;;;;;;;6.88;6.07;;;;;;;14.19;nan;99260.53;4971386;28;20287;-82
2023/05/01 02:57:51;;;;;;;5.90;4.90;;;;;;;14.18;nan;99262.34;4973306;28;20581;-83
2023/05/01 03:00:17;;;;;;;4.93;4.53;;;;;;;14.19;nan;99255.25;4976105;28;20823;-82
2023/05/01 03:02:43;;;;;;;5.57;5.07;;;;;;;14.20;nan;99252.44;4973590;28;20477;-82
2023/05/01 03:05:09;;;;;;;5.30;4.80;;;;;;;14.21;nan;99258.59;4986718;28;20221;-82
2023/05/01 03:07:34;;;;;;;8.80;4.90;;;;;;;14.19;nan;99255.25;4971927;28;20271;-81
2023/05/01 03:10:02;;;;;;;7.67;5.20;;;;;;;14.14;nan;99251.16;4974709;28;20224;-81
2023/05/01 03:12:29;;;;;;;5.22;4.53;;;;;;;14.11;nan;99247.97;4974881;28;20224;-82
2023/05/01 03:14:55;;;;;;;5.78;5.18;;;;;;;14.09;nan;99252.53;4977044;28;20224;-83
2023/05/01 03:17:20;;;;;;;5.07;4.63;;;;;;;14.07;nan;99251.81;4976168;28;20418;-81
2023/05/01 03:19:46;;;;;;;6.20;4.70;;;;;;;14.05;nan;99249.31;4976657;28;20938;-82
2023/05/01 03:22:11;;;;;;;7.27;5.60;;;;;;;14.03;nan;99248.59;4978335;28;20234;-81
2023/05/01 03:24:37;;;;;;;5.97;4.83;;;;;;;14.02;nan;99254.03;4980651;28;20219;-82
2023/05/01 03:27:03;;;;;;;5.83;5.40;;;;;;;13.98;nan;99252.59;4979524;28;20603;-82
2023/05/01 03:29:29;;;;;;;5.65;5.25;;;;;;;13.99;nan;99252.47;4980962;28;20227;-81
2023/05/01 03:31:56;;;;;;;5.30;4.40;;;;;;;14.00;nan;99243.56;4980333;28;20206;-81
2023/05/01 03:34:22;;;;;;;6.07;5.57;;;;;;;14.05;nan;99251.13;4978161;28;20473;-83
2023/05/01 03:36:47;;;;;;;7.75;5.45;;;;;;;14.03;nan;99253.88;4980560;28;20490;-82
2023/05/01 03:39:13;;;;;;;5.93;5.07;;;;;;;14.01;nan;99254.97;4978874;28;20724;-84
2023/05/01 03:42:07;;;;;;;5.07;4.65;;;;;;;13.99;nan;99244.56;4967403;28;20251;-82
2023/05/01 03:44:38;;;;;;;6.30;5.18;;;;;;;14.00;nan;99250.66;4979260;28;20261;-82
2023/05/01 03:47:04;;;;;;;6.10;5.47;;;;;;;14.01;nan;99254.97;4982168;28;20631;-81
2023/05/01 03:49:29;;;;;;;6.73;5.80;;;;;;;14.01;nan;99252.34;4979963;28;20302;-81
2023/05/01 03:51:55;;;;;;;5.50;5.10;;;;;;;14.00;nan;99254.13;4981000;28;20222;-80
2023/05/01 03:54:20;;;;;;;6.43;5.53;;;;;;;13.99;nan;99254.25;4980552;28;20262;-80
2023/05/01 03:57:13;;;;;;;6.00;5.45;;;;;;;13.98;nan;99257.88;4957892;28;20552;-81
2023/05/01 03:59:39;;;;;;;6.33;5.73;;;;;;;14.00;nan;99255.94;4959053;28;20355;-81
2023/05/01 04:02:04;;;;;;;6.50;5.90;;;;;;;14.01;nan;99258.44;4958208;28;20507;-82
2023/05/01 04:04:32;;;;;;;7.00;6.40;;;;;;;14.04;nan;99258.22;4959494;28;20485;-80
2023/05/01 04:06:58;;;;;;;8.20;7.25;;;;;;;14.07;nan;99262.38;4960460;28;20597;-80
2023/05/01 04:09:24;;;;;;;7.90;7.20;;;;;;;14.10;nan;99262.16;4962747;28;20270;-80
2023/05/01 04:11:49;;;;;;;7.20;6.50;;;;;;;14.09;nan;99266.56;4959851;28;20226;-80
2023/05/01 04:14:15;;;;;;;8.77;7.97;;;;;;;14.10;nan;99267.44;4963644;28;20290;-81
2023/05/01 04:16:40;;;;;;;8.30;7.43;;;;;;;14.11;nan;99263.81;4962709;28;20374;-82
2023/05/01 04:19:06;;;;;;;7.97;6.60;;;;;;;14.09;nan;99261.28;4964470;28;20640;-83
2023/05/01 04:21:35;;;;;;;6.82;6.15;;;;;;;14.08;nan;99256.97;4964030;28;20625;-82
2023/05/01 04:24:00;;;;;;;7.63;6.83;;;;;;;14.08;nan;99269.34;4960744;28;20338;-80
2023/05/01 04:26:26;;;;;;;6.97;6.32;;;;;;;14.07;nan;99270.28;4962833;28;20240;-80
2023/05/01 04:28:52;;;;;;;10.03;7.20;;;;;;;14.05;nan;99269.63;4963274;28;20668;-82
2023/05/01 04:31:21;;;;;;;8.30;6.78;;;;;;;14.04;nan;99266.13;4964610;28;20302;-83
2023/05/01 04:33:46;;;;;;;9.97;7.60;;;;;;;14.02;nan;99270.69;4965950;28;20307;-82
2023/05/01 04:36:12;;;;;;;9.02;7.50;;;;;;;14.03;nan;99271.53;4964527;28;20627;-83
2023/05/01 04:38:38;;;;;;;7.43;6.73;;;;;;;13.97;nan;99267.59;4965677;28;20212;-81
2023/05/01 04:41:04;;;;;;;8.23;6.77;;;;;;;13.89;nan;99275.31;4967572;28;21059;-80
2023/05/01 04:43:30;;;;;;;9.30;7.20;;;;;;;13.85;nan;99271.25;4968077;28;20227;-81
2023/05/01 04:45:55;;;;;;;9.27;6.80;;;;;;;13.82;nan;99274.97;4967225;28;20579;-82
2023/05/01 04:48:21;;;;;;;7.90;7.10;;;;;;;13.82;nan;99284.69;4969299;28;20235;-82
2023/05/01 04:50:46;;;;;;;9.50;7.53;;;;;;;13.81;nan;99278.59;4968527;28;20219;-80
2023/05/01 04:53:12;;;;;;;7.77;6.83;;;;;;;13.84;nan;99286.25;4968496;28;20643;-80
2023/05/01 04:55:39;;;;;;;7.72;6.80;;;;;;;13.87;nan;99286.00;4968902;28;20237;-81
2023/05/01 04:58:10;;;;;;;6.93;5.97;;;;;;;13.93;nan;99282.88;4969296;28;20215;-82
2023/05/01 05:00:35;;;;;;;8.43;7.60;;;;;;;13.97;nan;99285.25;4969776;28;20227;-82
2023/05/01 05:03:03;;;;;;;7.38;6.55;;;;;;;14.00;nan;99291.09;4969966;28;20759;-82
2023/05/01 05:05:28;;;;;;;8.90;8.10;;;;;;;14.06;nan;99287.94;4969199;28;20655;-81
2023/05/01 05:07:54;;;;;;;9.30;8.30;;;;;;;14.10;nan;99294.66;4969634;28;20338;-81
2023/05/01 05:10:38;;;;;;;9.20;7.40;;;;;;;14.13;nan;99298.88;4968520;28;20596;-82
2023/05/01 05:13:20;;;;;;;8.50;7.38;;;;;;;14.15;nan;99300.41;4965247;28;20219;-80
2023/05/01 05:15:52;;;;;;;8.80;7.90;;;;;;;14.16;nan;99296.78;4963165;28;20230;-81
2023/05/01 05:18:20;;;;;;;10.05;7.07;;;;;;;14.17;nan;99294.97;4965876;28;20216;-81
2023/05/01 05:20:45;;;;;;;8.53;7.67;;;;;;;14.17;nan;99287.88;4966123;28;20219;-82
2023/05/01 05:23:11;;;;;;;10.27;8.27;;;;;;;14.17;nan;99293.16;4966681;28;20244;-80
2023/05/01 05:25:37;;;;;;;7.83;7.10;;;;;;;14.16;nan;99302.06;4982180;28;20730;-81
2023/05/01 05:28:02;;;;;;;9.97;8.00;;;;;;;14.15;nan;99304.84;4964258;28;20258;-82
2023/05/01 05:30:28;;;;;;;11.63;7.83;;;;;;;14.14;nan;99308.44;4966499;28;20282;-83
2023/05/01 05:32:55;;;;;;;8.75;7.43;;;;;;;14.14;nan;99305.81;4967763;28;20470;-81
2023/05/01 05:35:21;;;;;;;10.63;8.15;;;;;;;14.19;nan;99300.97;4968693;28;20470;-80
2023/05/01 05:37:46;;;;;;;8.40;7.17;;;;;;;14.22;nan;99306.00;4970055;28;20306;-80
2023/05/01 05:40:12;;;;;;;8.03;7.30;;;;;;;14.27;nan;99306.47;4968407;28;20232;-80
2023/05/01 05:42:46;;;;;;;8.88;7.68;;;;;;;14.30;nan;99308.00;4968911;28;20223;-82
2023/05/01 05:45:11;;;;;;;7.63;6.80;;;;;;;14.31;nan;99307.91;4971138;28;20450;-81
2023/05/01 05:47:38;;;;;;;9.83;7.70;;;;;;;14.33;nan;99305.94;4968455;28;20239;-82
2023/05/01 05:50:05;;;;;;;16.20;8.37;;;;;;;14.35;nan;99309.28;4983518;28;21033;-80
2023/05/01 05:52:31;;;;;;;13.07;7.68;;;;;;;14.36;nan;99304.84;4969282;28;20627;-81
2023/05/01 05:54:57;;;;;;;9.98;7.90;;;;;;;14.37;nan;99315.28;4978146;28;20224;-82
2023/05/01 05:57:23;;;;;;;8.67;7.80;;;;;;;14.36;nan;99321.53;4974110;28;20224;-80
2023/05/01 05:59:49;;;;;;;7.93;6.57;;;;;;;14.34;nan;99317.38;4972430;28;20219;-81
2023/05/01 06:02:18;;;;;;;9.57;6.85;;;;;;;14.32;nan;99322.78;4984522;28;20270;-82
2023/05/01 06:04:43;;;;;;;9.83;7.60;;;;;;;14.30;nan;99315.94;4970535;28;20224;-81
2023/05/01 06:07:09;;;;;;;9.40;7.33;;;;;;;14.28;nan;99323.97;4953969;28;20575;-81
2023/05/01 06:09:35;;;;;;;9.63;7.30;;;;;;;14.24;nan;99317.28;4971160;28;20308;-82
2023/05/01 06:12:03;;;;;;;11.75;8.18;;;;;;;14.16;nan;99314.44;4976084;28;20224;-82
2023/05/01 06:14:29;;;;;;;9.90;8.15;;;;;;;14.07;nan;99310.78;4980253;28;20216;-82
2023/05/01 06:16:54;;;;;;;9.87;8.27;;;;;;;14.05;nan;99317.16;4986095;28;20255;-83
2023/05/01 06:19:20;;;;;;;9.17;7.70;;;;;;;14.02;nan;99317.41;4990437;28;20216;-83
2023/05/01 06:21:50;;;;;;;8.75;7.88;;;;;;;14.00;nan;99316.69;4988531;28;20427;-82
2023/05/01 06:24:15;;;;;;;11.07;8.83;;;;;;;13.98;nan;99322.06;4986795;28;20777;-80
2023/05/01 06:26:45;;;;;;;10.18;9.18;;;;;;;13.95;nan;99323.16;4980987;28;20220;-81
2023/05/01 06:29:11;;;;;;;11.30;8.80;;;;;;;13.94;nan;99316.22;4983752;28;20234;-81
2023/05/01 06:31:37;;;;;;;10.02;9.07;;;;;;;13.94;nan;99316.22;4981665;28;20232;-82
2023/05/01 06:34:02;;;;;;;11.20;7.80;;;;;;;13.92;nan;99319.94;4975250;28;20223;-82
2023/05/01 06:36:35;;;;;;;8.50;7.55;;;;;;;13.92;nan;99322.59;4974186;28;20223;-81
2023/05/01 06:39:01;;;;;;;12.67;8.50;;;;;;;13.92;nan;99322.59;4973000;28;20216;-80
2023/05/01 06:41:26;;;;;;;8.90;7.97;;;;;;;13.90;nan;99322.69;4972047;28;20228;-80
2023/05/01 06:43:52;;;;;;;12.20;7.40;;;;;;;13.91;nan;99324.41;4972486;28;20236;-82
2023/05/01 06:46:17;;;;;;;10.27;8.40;;;;;;;13.92;nan;99320.78;4973605;28;20740;-80
2023/05/01 06:48:43;;;;;;;10.60;7.33;;;;;;;13.96;nan;99331.94;4969519;28;20232;-81
2023/05/01 06:51:13;;;;;;;10.50;8.98;;;;;;;13.98;nan;99326.53;4970638;28;20234;-81
2023/05/01 06:53:40;;;;;;;12.30;10.35;;;;;;;14.01;nan;99337.66;4976367;28;20256;-80
2023/05/01 06:56:06;;;;;;;13.02;11.60;;;;;;;14.03;nan;99340.19;4971575;28;20218;-81
2023/05/01 06:58:31;;;;;;;15.63;13.70;;;;;;;14.03;nan;99346.31;4971460;28;20222;-80
2023/05/01 07:00:57;;;;;;;14.77;11.60;;;;;;;14.04;nan;99347.16;4970882;28;20216;-79
2023/05/01 07:03:22;;;;;;;11.10;9.50;;;;;;;14.02;nan;99346.44;4970536;28;20225;-79
2023/05/01 07:05:48;;;;;;;13.07;11.43;;;;;;;14.06;nan;99353.16;4968361;28;20559;-80
2023/05/01 07:08:13;;;;;;;11.17;9.60;;;;;;;14.06;nan;99356.63;4971714;28;20481;-80
2023/05/01 07:10:39;;;;;;;13.70;8.77;;;;;;;14.07;nan;99352.16;4970876;28;20629;-83
2023/05/01 07:13:04;;;;;;;10.73;8.50;;;;;;;14.10;nan;99362.50;4973383;28;20227;-83
2023/05/01 07:15:29;;;;;;;13.13;10.30;;;;;;;14.12;nan;99356.13;4973541;28;20215;-83
2023/05/01 07:17:55;;;;;;;12.70;9.57;;;;;;;14.14;nan;99354.19;4971395;28;20306;-83
2023/05/01 07:20:20;;;;;;;13.87;9.83;;;;;;;14.19;nan;99351.16;4972240;28;20290;-80
2023/05/01 07:22:46;;;;;;;13.03;10.00;;;;;;;14.22;nan;99344.78;4974507;28;20349;-80
2023/05/01 07:25:12;;;;;;;11.63;9.50;;;;;;;14.22;nan;99348.28;4975156;28;20864;-81
2023/05/01 07:27:37;;;;;;;11.35;9.13;;;;;;;14.20;nan;99344.91;4976984;28;20234;-81
2023/05/01 07:30:04;;;;;;;14.17;11.90;;;;;;;14.17;nan;99347.81;4973870;28;20318;-81
2023/05/01 07:32:30;;;;;;;12.00;10.13;;;;;;;14.19;nan;99340.59;4975538;28;20211;-81
2023/05/01 07:34:55;;;;;;;12.77;10.80;;;;;;;14.23;nan;99341.19;4972539;28;20506;-80
2023/05/01 07:37:20;;;;;;;11.87;8.80;;;;;;;14.29;nan;99348.63;4973509;28;20948;-79
2023/05/01 07:39:46;;;;;;;12.33;10.00;;;;;;;14.32;nan;99343.91;4975053;28;20227;-78
2023/05/01 07:42:11;;;;;;;11.27;10.10;;;;;;;14.38;nan;99353.13;4979184;28;20291;-80
2023/05/01 07:44:37;;;;;;;11.13;9.97;;;;;;;14.38;nan;99343.38;4977516;28;20273;-80
2023/05/01 07:47:04;;;;;;;15.03;10.30;;;;;;;14.38;nan;99351.31;4974647;28;20321;-80
2023/05/01 07:49:34;;;;;;;12.48;11.25;;;;;;;14.38;nan;99346.03;4975700;28;20479;-79
2023/05/01 07:52:00;;;;;;;12.13;8.50;;;;;;;14.37;nan;99347.00;4974590;28;20222;-78
2023/05/01 07:54:25;;;;;;;10.33;9.10;;;;;;;14.38;nan;99348.66;4971772;28;20223;-80
2023/05/01 07:56:50;;;;;;;12.60;10.13;;;;;;;14.40;nan;99348.56;4972431;28;20227;-79
2023/05/01 07:59:16;;;;;;;10.63;9.40;;;;;;;14.41;nan;99344.09;4980025;28;20234;-79
2023/05/01 08:01:41;;;;;;;13.60;11.00;;;;;;;14.39;nan;99347.72;4973043;28;20229;-78
2023/05/01 08:04:07;;;;;;;15.90;13.53;;;;;;;14.45;nan;99334.97;4971017;28;20702;-78
2023/05/01 08:06:33;;;;;;;16.85;10.52;;;;;;;14.46;nan;99350.69;4979039;28;21345;-81
2023/05/01 08:08:58;;;;;;;13.63;11.20;;;;;;;14.45;nan;99349.00;4975693;28;20772;-78
2023/05/01 08:11:25;;;;;;;15.20;11.70;;;;;;;14.51;nan;99355.59;4978026;28;20226;-80
2023/05/01 08:13:51;;;;;;;12.27;9.90;;;;;;;14.56;nan;99354.25;4979704;28;20719;-82
2023/05/01 08:16:18;;;;;;;10.60;9.50;;;;;;;14.65;nan;99352.63;4978181;28;20253;-81
2023/05/01 08:18:45;;;;;;;13.65;11.20;;;;;;;14.67;nan;99353.34;4978715;28;20608;-80
2023/05/01 08:21:11;;;;;;;11.05;9.88;;;;;;;14.73;nan;99347.53;4977018;28;20391;-79
2023/05/01 08:23:36;;;;;;;11.73;10.10;;;;;;;14.79;nan;99348.81;4977125;28;20782;-80
2023/05/01 08:26:02;;;;;;;12.90;10.57;;;;;;;14.86;nan;99355.28;4978561;28;20282;-80
2023/05/01 08:28:27;;;;;;;11.70;10.30;;;;;;;14.86;nan;99347.34;4980216;28;20651;-81
2023/05/01 08:30:53;;;;;;;11.90;9.77;;;;;;;14.89;nan;99355.00;4979762;28;20521;-81
2023/05/01 08:33:18;;;;;;;10.53;9.43;;;;;;;14.94;nan;99351.97;4978192;28;20259;-81
2023/05/01 08:35:44;;;;;;;11.70;10.07;;;;;;;15.01;nan;99353.09;4974814;28;21018;-81
2023/05/01 08:38:10;;;;;;;13.67;10.90;;;;;;;15.04;nan;99342.25;4977408;28;20238;-80
2023/05/01 08:40:37;;;;;;;11.07;9.85;;;;;;;15.08;nan;99348.13;4976199;28;20275;-81
2023/05/01 08:43:03;;;;;;;15.45;12.10;;;;;;;15.15;nan;99351.91;4975063;28;20676;-80
2023/05/01 08:45:34;;;;;;;14.80;11.55;;;;;;;15.22;nan;99347.75;4978995;28;20227;-80
2023/05/01 08:48:04;;;;;;;15.57;9.82;;;;;;;15.29;nan;99348.09;4975284;28;20240;-81
2023/05/01 08:50:32;;;;;;;11.88;9.90;;;;;;;15.39;nan;99351.56;4974928;28;20231;-82
2023/05/01 08:52:58;;;;;;;13.70;10.32;;;;;;;15.54;nan;99341.47;4977104;28;20257;-79
2023/05/01 08:55:25;;;;;;;10.90;9.30;;;;;;;15.74;nan;99335.25;4973545;28;20429;-80
2023/05/01 08:57:51;;;;;;;10.38;9.20;;;;;;;15.95;nan;99337.78;4971961;28;20792;-82
2023/05/01 09:00:19;;;;;;;8.38;7.63;;;;;;;16.11;nan;99343.38;4968063;28;20224;-82
2023/05/01 09:02:49;;;;;;;14.25;8.38;;;;;;;16.23;nan;99332.63;4968066;28;20673;-82
2023/05/01 09:05:16;;;;;;;9.07;7.90;;;;;;;16.34;nan;99332.50;4969576;28;20224;-80
2023/05/01 09:07:43;;;;;;;7.40;6.70;;;;;;;16.44;nan;99329.81;4967484;28;20226;-81
2023/05/01 09:10:12;;;;;;;7.97;7.20;;;;;;;16.57;nan;99336.47;4968695;28;20311;-81
2023/05/01 09:12:38;;;;;;;10.15;7.93;;;;;;;16.65;nan;99340.25;4971386;28;20579;-82
2023/05/01 09:15:06;;;;;;;11.07;7.75;;;;;;;16.70;nan;99332.69;4972370;28;20692;-81
2023/05/01 09:17:31;;;;;;;7.65;6.78;;;;;;;16.80;nan;99329.06;4976835;28;20215;-81
2023/05/01 09:19:57;;;;;;;6.30;5.70;;;;;;;16.91;nan;99333.38;4974905;28;20243;-81
2023/05/01 09:22:23;;;;;;;11.17;5.83;;;;;;;17.03;nan;99329.53;4976440;28;20237;-81
2023/05/01 09:24:48;;;;;;;10.07;5.80;;;;;;;17.15;nan;99327.56;4979045;28;20330;-80
2023/05/01 09:27:14;;;;;;;6.97;4.77;;;;;;;17.29;nan;99333.38;4975006;28;20279;-81
2023/05/01 09:29:42;;;;;;;5.23;4.23;;;;;;;17.45;nan;99329.06;4968861;28;20255;-80
2023/05/01 09:32:19;;;;;;;4.15;3.75;;;;;;;17.64;nan;99329.94;4968926;28;20209;-83
2023/05/01 09:34:45;;;;;;;4.82;4.32;;;;;;;17.95;nan;99318.97;4972168;28;20522;-82
2023/05/01 09:37:48;;;;;;;4.43;4.03;;;;;;;18.15;nan;99328.47;4970631;28;20774;-83
2023/05/01 09:40:13;;;;;;;3.40;3.10;;;;;;;18.31;nan;99325.97;4936107;28;20571;-82
2023/05/01 09:42:48;;;;;;;4.73;3.00;;;;;;;18.50;nan;99329.44;4969285;28;20622;-81
2023/05/01 09:45:14;;;;;;;3.77;3.30;;;;;;;18.73;nan;99329.72;4968740;28;20220;-80
2023/05/01 09:47:44;;;;;;;3.20;2.80;;;;;;;19.00;nan;99336.75;4973047;28;20479;-82
2023/05/01 09:50:27;;;;;;;3.37;3.03;;;;;;;19.15;nan;99326.34;4972467;28;20470;-81
2023/05/01 09:52:52;;;;;;;6.30;2.70;;;;;;;19.27;nan;99326.88;4971571;28;20524;-80
2023/05/01 09:55:18;;;;;;;2.33;2.07;;;;;;;19.40;nan;99319.28;4969924;28;20464;-81
2023/05/01 09:57:45;;;;;;;3.70;2.83;;;;;;;19.59;nan;99316.34;4971744;28;20197;-82
2023/05/01 10:00:14;;;;;;;2.90;2.40;;;;;;;19.70;nan;99306.41;4968307;28;20802;-80
2023/05/01 10:02:42;;;;;;;2.97;2.70;;;;;;;19.81;nan;99306.09;4968979;28;20471;-81
2023/05/01 10:05:09;;;;;;;2.33;2.13;;;;;;;19.86;nan;99303.75;4968745;28;20458;-82
2023/05/01 10:07:35;;;;;;;2.53;2.33;;;;;;;19.86;nan;99307.25;4968828;28;20920;-83
2023/05/01 10:10:20;;;;;;;2.70;2.47;;;;;;;19.87;nan;99302.75;4967353;28;20503;-82
2023/05/01 10:12:47;;;;;;;2.93;2.40;;;;;;;19.74;nan;99307.72;4967077;28;20733;-81
2023/05/01 10:15:13;;;;;;;3.30;2.77;;;;;;;19.55;nan;99309.69;4970287;28;20972;-80
2023/05/01 10:17:40;;;;;;;2.63;2.40;;;;;;;19.54;nan;99310.66;4970142;28;20982;-81
2023/05/01 10:20:07;;;;;;;4.00;2.90;;;;;;;19.55;nan;99301.69;4969608;28;20454;-82
2023/05/01 10:22:33;;;;;;;3.27;3.00;;;;;;;19.64;nan;99300.69;4971391;28;20454;-81
2023/05/01 10:24:59;;;;;;;2.07;1.87;;;;;;;19.73;nan;99306.91;4972709;28;20747;-84
2023/05/01 10:27:25;;;;;;;2.10;1.90;;;;;;;19.78;nan;99304.59;4974469;28;20235;-81
2023/05/01 10:29:54;;;;;;;2.60;2.23;;;;;;;19.93;nan;99295.94;4973725;28;20786;-84
2023/05/01 10:32:20;;;;;;;1.50;1.40;;;;;;;20.03;nan;99300.09;4972205;28;20835;-84
2023/05/01 10:34:57;;;;;;;2.33;1.83;;;;;;;20.22;nan;99301.59;4973434;28;20444;-84
2023/05/01 10:37:43;;;;;;;2.27;1.83;;;;;;;20.27;nan;99301.94;4973093;28;20201;-83
2023/05/01 10:40:47;;;;;;;2.30;2.10;;;;;;;20.43;nan;99297.59;4977135;28;20430;-82
2023/05/01 10:43:29;;;;;;;3.00;2.20;;;;;;;20.57;nan;99293.44;4972262;28;20456;-80
2023/05/01 10:46:06;;;;;;;2.00;1.60;;;;;;;20.66;nan;99297.78;4973382;28;20485;-84
2023/05/01 10:48:38;;;;;;;1.80;1.70;;;;;;;20.68;nan;99288.56;4972068;28;20685;-83
2023/05/01 10:51:13;;;;;;;1.40;1.30;;;;;;;20.68;nan;99285.06;4970734;28;20842;-83
2023/05/01 10:53:40;;;;;;;1.50;1.40;;;;;;;20.68;nan;99285.91;4973310;28;20468;-82
2023/05/01 10:56:31;;;;;;;1.50;1.40;;;;;;;20.64;nan;99281.09;4973487;28;20460;-83
2023/05/01 10:58:57;;;;;;;2.33;1.70;;;;;;;20.62;nan;99281.25;4970475;28;20466;-83
2023/05/01 11:01:44;;;;;;;3.00;2.07;;;;;;;20.68;nan;99279.72;4971402;28;20457;-84
2023/05/01 11:04:25;;;;;;;1.87;1.77;;;;;;;20.83;nan;99272.69;4972281;28;20526;-83
2023/05/01 11:07:04;;;;;;;2.57;2.27;;;;;;;21.07;nan;99271.78;4972645;28;20492;-83
2023/05/01 11:09:45;;;;;;;4.30;1.97;;;;;;;21.26;nan;99267.03;4973508;28;20769;-84
2023/05/01 11:12:14;;;;;;;1.73;1.63;;;;;;;21.29;nan;99269.34;4969933;28;20494;-85
2023/05/01 11:14:52;;;;;;;2.80;1.70;;;;;;;21.24;nan;99263.69;4969515;28;20583;-83
2023/05/01 11:17:39;;;;;;;1.83;1.70;;;;;;;21.18;nan;99266.03;4971653;28;20599;-83
2023/05/01 11:20:06;;;;;;;2.10;1.90;;;;;;;21.14;nan;99266.56;4972500;28;20486;-82
2023/05/01 11:22:32;;;;;;;2.13;2.03;;;;;;;21.16;nan;99257.38;4973509;28;20497;-82
2023/05/01 11:24:59;;;;;;;2.37;2.10;;;;;;;21.27;nan;99256.16;4956407;28;20452;-82
2023/05/01 11:27:25;;;;;;;3.40;2.27;;;;;;;21.31;nan;99253.97;4973149;28;20481;-81
2023/05/01 11:29:52;;;;;;;2.50;2.30;;;;;;;21.34;nan;99256.28;4971741;28;20464;-82
2023/05/01 11:32:28;;;;;;;2.30;2.10;;;;;;;21.33;nan;99254.63;4971753;28;20529;-84
2023/05/01 11:34:55;;;;;;;1.87;1.67;;;;;;;21.32;nan;99255.63;4972357;28;20451;-82
2023/05/01 11:37:41;;;;;;;3.77;2.60;;;;;;;21.39;nan;99246.78;4974493;28;20531;-82
2023/05/01 11:40:19;;;;;;;2.80;2.33;;;;;;;21.47;nan;99248.56;4974073;28;21045;-84
2023/05/01 11:42:45;;;;;;;2.50;2.20;;;;;;;21.49;nan;99248.38;4973454;28;20507;-82
2023/05/01 11:45:11;;;;;;;2.87;2.63;;;;;;;21.56;nan;99234.13;4972584;28;20506;-84
2023/05/01 11:47:40;;;;;;;2.00;1.80;;;;;;;21.62;nan;99235.25;4972174;28;20220;-84
2023/05/01 11:50:07;;;;;;;2.20;2.00;;;;;;;21.64;nan;99227.91;4971356;28;20276;-82
2023/05/01 11:52:51;;;;;;;2.40;2.10;;;;;;;21.71;nan;99220.84;4970885;28;20467;-82
2023/05/01 11:55:17;;;;;;;3.20;2.60;;;;;;;21.84;nan;99220.22;4970942;28;20463;-84